Time;durP1;ratioP1;P1;durP2;ratioP2;P2;SDS_P1;SDS_P2;PMS_P1;PMS_P2;Temp;Humidity;BMP_temperature;BMP_pressure;BME280_temperature;BME280_humidity;BME280_pressure;Samples;Min_cycle;Max_cycle;Signal;HPM_P1;HPM_P2
2024/03/09 00:01:05;;;;;;;38.00;26.37;;;3.10;99.90;;;-141.84;88.26;47322.81;5025407;28;20202;-58
2024/03/09 00:03:35;;;;;;;40.50;26.73;;;3.00;99.90;;;-141.84;88.80;52303.44;5028039;28;20289;-59
2024/03/09 00:06:03;;;;;;;40.97;26.80;;;3.00;99.90;;;-141.84;87.07;43656.88;5024215;28;20307;-58
2024/03/09 00:08:31;;;;;;;37.63;26.23;;;3.10;99.90;;;-141.84;86.46;36694.47;5022476;28;20262;-59
2024/03/09 00:11:00;;;;;;;38.73;25.87;;;3.00;99.90;;;-141.84;85.87;32430.78;5020985;28;20724;-58
2024/03/09 00:13:29;;;;;;;37.87;25.37;;;3.10;99.90;;;-141.84;87.29;41563.59;5021842;28;20199;-59
2024/03/09 00:16:00;;;;;;;38.33;25.97;;;3.00;99.90;;;-141.84;88.69;50467.75;5022594;28;20283;-59
2024/03/09 00:18:30;;;;;;;37.97;25.57;;;3.00;99.90;;;-141.84;88.19;50205.56;5019374;28;20263;-58
2024/03/09 00:21:12;;;;;;;38.30;24.70;;;2.90;99.90;;;-141.84;87.40;43133.44;5021381;28;20301;-59
2024/03/09 00:23:41;;;;;;;35.17;24.87;;;2.90;99.90;;;-141.84;88.19;46798.88;5020177;28;20232;-59
2024/03/09 00:26:10;;;;;;;36.03;24.80;;;2.80;99.90;;;-141.84;87.76;44965.75;5026952;28;20236;-59
2024/03/09 00:28:40;;;;;;;36.77;24.37;;;2.90;99.90;;;-141.84;88.02;46275.03;5024198;28;20708;-59
2024/03/09 00:31:12;;;;;;;34.07;23.87;;;2.80;99.90;;;-141.84;89.18;52565.75;5029726;28;20870;-59
2024/03/09 00:33:42;;;;;;;32.90;23.83;;;2.80;99.90;;;-141.84;89.43;54927.34;5025153;28;20253;-58
2024/03/09 00:36:12;;;;;;;32.90;23.40;;;2.80;99.90;;;-141.84;89.15;54927.34;5016612;28;20285;-58
2024/03/09 00:38:42;;;;;;;34.83;23.50;;;2.70;99.90;;;-141.84;87.72;45227.56;5027797;28;20273;-58
2024/03/09 00:41:10;;;;;;;38.03;23.87;;;2.80;99.90;;;-141.84;87.33;40778.88;5022304;28;20227;-58
2024/03/09 00:43:44;;;;;;;35.07;23.50;;;2.80;99.90;;;-141.84;87.99;45227.56;5016562;28;20201;-59
2024/03/09 00:46:13;;;;;;;35.53;24.03;;;2.70;99.90;;;-141.84;86.65;40778.88;5026810;28;20194;-58
2024/03/09 00:48:43;;;;;;;31.07;23.13;;;2.80;99.90;;;-141.84;86.31;35137.38;5028840;28;20696;-58
2024/03/09 00:51:13;;;;;;;32.27;22.60;;;2.80;99.90;;;-141.84;85.77;32634.66;5025064;28;20266;-58
2024/03/09 00:53:41;;;;;;;32.90;23.47;;;2.80;99.90;;;-141.84;85.35;29430.63;5025844;28;20222;-58
2024/03/09 00:56:09;;;;;;;30.30;21.53;;;2.80;99.90;;;-141.84;86.48;33735.91;5020708;28;20230;-59
2024/03/09 00:58:38;;;;;;;31.33;21.80;;;2.70;99.90;;;-141.84;86.82;40517.34;5021752;28;20696;-57
2024/03/09 01:01:06;;;;;;;32.00;20.97;;;2.70;99.90;;;-141.84;86.66;35943.38;5030451;28;20242;-58
2024/03/09 01:03:35;;;;;;;31.10;20.73;;;2.70;99.90;;;-141.84;86.48;36631.19;5029446;28;20224;-58
2024/03/09 01:06:05;;;;;;;31.13;21.03;;;2.70;99.90;;;-141.84;86.52;35349.56;5022911;28;20227;-58
2024/03/09 01:08:36;;;;;;;30.43;20.90;;;2.70;99.90;;;-141.84;86.95;39385.63;5024541;28;20248;-58
2024/03/09 01:11:06;;;;;;;29.70;20.53;;;2.60;99.90;;;-141.84;85.99;33348.41;5020297;28;20264;-57
2024/03/09 01:13:34;;;;;;;31.50;19.83;;;2.70;99.90;;;-141.84;86.02;32220.78;5029615;28;20215;-57
2024/03/09 01:16:03;;;;;;;29.33;20.73;;;2.70;99.90;;;-141.84;86.90;37956.09;5021471;28;20229;-59
2024/03/09 01:18:32;;;;;;;28.30;19.53;;;2.60;99.90;;;-141.84;87.78;44180.38;5045517;28;20221;-58
2024/03/09 01:21:00;;;;;;;31.97;20.80;;;2.60;99.90;;;-141.84;88.88;50729.94;5046755;28;20227;-58
2024/03/09 01:23:31;;;;;;;28.43;20.07;;;2.60;99.90;;;-141.84;88.23;47846.78;5039083;28;20290;-59
2024/03/09 01:26:02;;;;;;;27.93;20.43;;;2.50;99.90;;;-141.84;88.57;48894.97;5046683;28;20237;-59
2024/03/09 01:28:31;;;;;;;27.97;19.73;;;2.50;99.90;;;-141.84;89.48;53615.19;5049292;28;20348;-58
2024/03/09 01:31:00;;;;;;;29.33;21.13;;;2.40;99.90;;;-141.84;89.71;56502.53;5049299;28;20233;-57
2024/03/09 01:33:28;;;;;;;30.53;20.30;;;2.40;99.90;;;-141.84;88.66;49943.41;5043197;28;20232;-58
2024/03/09 01:35:57;;;;;;;31.27;20.03;;;2.40;99.90;;;-141.84;88.42;48894.97;5025275;28;20242;-58
2024/03/09 01:38:26;;;;;;;30.30;20.13;;;2.40;99.90;;;-141.84;88.54;49157.03;5024627;28;20241;-60
2024/03/09 01:40:54;;;;;;;31.43;20.80;;;2.40;99.90;;;-141.84;88.79;51778.88;5025694;28;20198;-57
2024/03/09 01:43:23;;;;;;;29.17;20.07;;;2.40;99.90;;;-141.84;88.01;47584.78;5023524;28;20211;-58
2024/03/09 01:45:58;;;;;;;27.90;19.23;;;2.50;99.90;;;-141.84;87.68;42348.44;5017886;28;20743;-58
2024/03/09 01:48:27;;;;;;;31.10;20.07;;;2.40;99.90;;;-141.84;88.84;50992.13;4993038;28;20226;-57
2024/03/09 01:50:55;;;;;;;30.23;18.97;;;2.40;99.90;;;-141.84;87.41;42871.75;5026719;28;20315;-57
2024/03/09 01:53:25;;;;;;;29.07;20.17;;;2.40;99.90;;;-141.84;86.27;34092.84;5024115;28;20552;-57
2024/03/09 01:55:58;;;;;;;32.07;19.93;;;2.40;99.90;;;-141.84;87.09;39271.25;5031979;28;20244;-60
2024/03/09 01:58:33;;;;;;;29.60;18.83;;;2.40;99.90;;;-141.84;86.50;35735.25;5028341;28;20556;-57
2024/03/09 02:01:08;;;;;;;30.10;19.43;;;2.50;99.90;;;-141.84;86.69;36029.09;5025620;28;20815;-60
2024/03/09 02:03:39;;;;;;;30.47;20.63;;;2.40;99.90;;;-141.84;87.91;43656.88;5021394;28;20218;-59
2024/03/09 02:06:10;;;;;;;28.00;19.23;;;2.40;99.90;;;-141.84;86.32;34445.75;5023379;28;20223;-58
2024/03/09 02:08:40;;;;;;;28.40;19.07;;;2.40;99.90;;;-141.84;86.61;37596.75;5029092;28;20229;-60
2024/03/09 02:11:08;;;;;;;28.00;18.83;;;2.40;99.90;;;-141.84;84.19;24641.66;5022649;28;20258;-65
2024/03/09 02:13:39;;;;;;;29.17;19.43;;;2.50;99.90;;;-141.84;82.23;20098.38;5029870;28;20272;-65
2024/03/09 02:16:09;;;;;;;28.73;19.40;;;2.60;99.90;;;-141.84;83.72;21987.03;5028281;28;20202;-67
2024/03/09 02:18:45;;;;;;;29.23;18.07;;;2.50;99.90;;;-141.84;84.61;24552.13;5024828;28;20257;-66
2024/03/09 02:21:13;;;;;;;27.57;18.03;;;2.40;99.90;;;-141.84;85.95;30638.97;5027698;28;20304;-60
2024/03/09 02:23:47;;;;;;;29.07;18.70;;;2.40;99.90;;;-141.84;87.11;38440.03;5024888;28;20241;-59
2024/03/09 02:26:17;;;;;;;31.87;19.37;;;2.30;99.90;;;-141.84;87.80;43133.44;5029561;28;20254;-57
2024/03/09 02:28:54;;;;;;;27.03;17.93;;;2.30;99.90;;;-141.84;88.20;46536.97;5024878;28;20234;-66
2024/03/09 02:31:23;;;;;;;25.60;18.57;;;2.20;99.90;;;-141.84;87.36;41563.59;5031252;28;20252;-65
2024/03/09 02:33:53;;;;;;;29.87;19.57;;;2.20;99.90;;;-141.84;88.62;47584.78;5027397;28;20604;-66
2024/03/09 02:36:25;;;;;;;29.93;19.63;;;2.20;99.90;;;-141.84;89.50;54140.00;5026305;28;20280;-66
2024/03/09 02:38:59;;;;;;;29.37;18.80;;;2.10;99.90;;;-141.84;88.11;47584.78;5020029;28;20229;-66
2024/03/09 02:41:29;;;;;;;30.20;19.23;;;2.20;99.90;;;-141.84;88.38;46536.97;5023044;28;20569;-65
2024/03/09 02:43:57;;;;;;;27.67;18.57;;;2.10;99.90;;;-141.84;88.22;44965.75;5025630;28;20323;-66
2024/03/09 02:46:25;;;;;;;30.40;19.37;;;2.10;99.90;;;-141.84;89.68;54402.44;5025975;28;20216;-67
2024/03/09 02:48:55;;;;;;;27.20;18.37;;;2.00;99.90;;;-141.84;89.12;52303.44;5030725;28;20233;-65
2024/03/09 02:51:26;;;;;;;29.13;18.37;;;2.10;99.90;;;-141.84;89.34;52041.16;5024502;28;20252;-66
2024/03/09 02:53:55;;;;;;;26.60;18.63;;;2.10;99.90;;;-141.84;89.24;52303.44;5028373;28;20240;-66
2024/03/09 02:56:28;;;;;;;26.70;17.97;;;2.10;99.90;;;-141.84;89.55;53352.78;5020154;28;20299;-65
2024/03/09 02:58:58;;;;;;;28.47;18.20;;;2.00;99.90;;;-141.84;90.72;60706.06;5027447;28;20192;-58
2024/03/09 03:01:27;;;;;;;28.10;18.17;;;2.00;99.90;;;-141.84;90.64;59129.22;5031081;28;20225;-59
2024/03/09 03:03:58;;;;;;;29.70;19.20;;;2.00;99.90;;;-141.84;91.20;62020.59;5030349;28;20223;-58
2024/03/09 03:06:28;;;;;;;28.13;18.70;;;1.90;99.90;;;-141.84;88.94;53615.19;5029528;28;20305;-59
2024/03/09 03:08:59;;;;;;;27.87;18.87;;;2.10;99.90;;;-141.84;87.42;43656.88;5017155;28;20622;-56
2024/03/09 03:11:29;;;;;;;28.40;18.13;;;2.00;99.90;;;-141.84;87.42;39318.22;5030082;28;20368;-59
2024/03/09 03:14:01;;;;;;;26.40;17.97;;;2.10;99.90;;;-141.84;87.69;43656.88;5027769;28;20320;-60
2024/03/09 03:16:31;;;;;;;27.40;18.07;;;2.10;99.90;;;-141.84;86.82;37025.16;5029037;28;20673;-66
2024/03/09 03:19:00;;;;;;;30.67;18.73;;;2.10;99.90;;;-141.84;88.13;44180.38;5028413;28;20253;-65
2024/03/09 03:21:29;;;;;;;26.53;17.13;;;2.10;99.90;;;-141.84;88.29;47322.81;5023256;28;20222;-66
2024/03/09 03:24:05;;;;;;;27.33;17.87;;;2.10;99.90;;;-141.84;89.66;55452.34;5027890;28;20241;-59
2024/03/09 03:26:35;;;;;;;28.40;17.97;;;2.00;99.90;;;-141.84;88.82;50467.75;5022404;28;20257;-59
2024/03/09 03:29:03;;;;;;;27.00;18.07;;;2.00;99.90;;;-141.84;89.31;52828.09;5021104;28;20229;-60
2024/03/09 03:31:32;;;;;;;22.73;17.00;;;2.00;99.90;;;-141.84;88.58;50467.75;5032364;28;20206;-59
2024/03/09 03:34:01;;;;;;;26.40;17.63;;;2.00;99.90;;;-141.84;88.03;45227.56;5026195;28;20262;-57
2024/03/09 03:36:31;;;;;;;26.30;16.93;;;2.10;99.90;;;-141.84;88.15;45227.56;5033156;28;20222;-65
2024/03/09 03:39:04;;;;;;;25.77;17.03;;;2.00;99.90;;;-141.84;88.17;48370.84;5025876;28;20225;-66
2024/03/09 03:41:37;;;;;;;24.67;16.57;;;2.00;99.90;;;-141.84;85.71;31656.06;5030413;28;20309;-57
2024/03/09 03:44:06;;;;;;;23.17;16.23;;;2.10;99.90;;;-141.84;85.98;31193.34;5031596;28;20742;-65
2024/03/09 03:46:35;;;;;;;25.20;16.83;;;2.20;99.90;;;-141.84;84.98;26166.06;5026121;28;20213;-57
2024/03/09 03:49:10;;;;;;;25.57;16.70;;;2.20;99.90;;;-141.84;84.78;26206.78;5002419;28;20286;-58
2024/03/09 03:51:39;;;;;;;26.40;16.87;;;2.20;99.90;;;-141.84;86.36;32650.97;5049633;28;20662;-58
2024/03/09 03:54:07;;;;;;;23.47;16.70;;;2.10;99.90;;;-141.84;86.51;33342.28;5044414;28;20233;-65
2024/03/09 03:56:36;;;;;;;23.27;16.27;;;2.00;99.90;;;-141.84;89.09;49157.03;5039880;28;20226;-65
2024/03/09 03:59:05;;;;;;;28.13;18.23;;;2.00;99.90;;;-141.84;90.82;59654.75;5026082;28;20323;-66
2024/03/09 04:01:34;;;;;;;24.53;15.83;;;1.90;99.90;;;-141.84;91.74;64650.94;5027049;28;20221;-67
2024/03/09 04:04:04;;;;;;;26.67;16.73;;;1.80;99.90;;;-141.84;92.08;65966.75;4996597;28;20222;-65
2024/03/09 04:06:32;;;;;;;27.23;17.57;;;1.80;99.90;;;-141.84;91.45;64387.81;5023376;28;20702;-67
2024/03/09 04:09:00;;;;;;;25.50;17.53;;;1.80;99.90;;;-141.84;90.52;59654.75;5032410;28;20245;-65
2024/03/09 04:11:33;;;;;;;26.93;16.57;;;1.90;99.90;;;-141.84;89.48;55714.84;5030242;28;20740;-58
2024/03/09 04:14:04;;;;;;;25.20;16.67;;;1.80;99.90;;;-141.84;90.37;57553.00;5026693;28;20233;-59
2024/03/09 04:16:33;;;;;;;27.53;17.90;;;1.90;99.90;;;-141.84;90.39;58603.75;5019628;28;20240;-59
2024/03/09 04:19:03;;;;;;;27.40;17.77;;;1.80;99.90;;;-141.84;90.53;58078.34;5018974;28;20222;-59
2024/03/09 04:21:31;;;;;;;26.60;17.07;;;1.80;99.90;;;-141.84;91.76;63861.66;5026682;28;20219;-60
2024/03/09 04:23:59;;;;;;;24.87;16.73;;;1.80;99.90;;;-141.84;91.58;65177.19;5020093;28;20230;-59
2024/03/09 04:26:28;;;;;;;27.77;16.97;;;1.80;99.90;;;-141.84;89.92;56239.94;5027445;28;20648;-58
2024/03/09 04:28:58;;;;;;;25.67;16.17;;;1.80;99.90;;;-141.84;90.64;58341.03;5024907;28;20262;-58
2024/03/09 04:31:27;;;;;;;26.70;17.20;;;1.70;99.90;;;-141.84;91.09;64914.06;5031897;28;20246;-58
2024/03/09 04:33:56;;;;;;;26.83;17.20;;;1.70;99.90;;;-141.84;89.71;54140.00;5023336;28;20227;-58
2024/03/09 04:36:29;;;;;;;25.97;17.23;;;1.80;99.90;;;-141.84;88.96;51778.88;5031781;28;20257;-58
2024/03/09 04:39:00;;;;;;;25.70;17.90;;;1.80;99.90;;;-141.84;87.85;42871.75;5025751;28;20280;-58
2024/03/09 04:41:32;;;;;;;26.83;17.87;;;1.80;99.90;;;-141.84;88.11;44442.13;5026815;28;20289;-57
2024/03/09 04:44:01;;;;;;;26.33;17.50;;;1.80;99.90;;;-141.84;88.43;47322.81;5012516;28;20258;-57
2024/03/09 04:46:31;;;;;;;26.23;17.17;;;1.80;99.90;;;-141.84;89.42;52828.09;5025054;28;20213;-57
2024/03/09 04:48:59;;;;;;;24.83;17.00;;;1.80;99.90;;;-141.84;90.33;57553.00;5030122;28;20697;-58
2024/03/09 04:51:28;;;;;;;22.93;16.27;;;1.70;99.90;;;-141.84;89.97;58603.75;5022603;28;20305;-60
2024/03/09 04:53:56;;;;;;;26.53;17.77;;;1.80;99.90;;;-141.84;89.10;50992.13;5029512;28;20642;-59
2024/03/09 04:56:24;;;;;;;29.50;17.97;;;1.80;99.90;;;-141.84;88.54;49681.28;5019737;28;20230;-59
2024/03/09 04:58:53;;;;;;;25.97;16.63;;;1.90;99.90;;;-141.84;88.88;48370.84;5020441;28;20305;-58
2024/03/09 05:01:21;;;;;;;26.47;16.83;;;1.80;99.90;;;-141.84;89.41;52303.44;5023919;28;20565;-59
2024/03/09 05:03:50;;;;;;;26.63;17.13;;;1.80;99.90;;;-141.84;91.69;63861.66;5030069;28;20311;-60
2024/03/09 05:06:19;;;;;;;26.23;17.13;;;1.70;99.90;;;-141.84;92.03;66493.19;5023128;28;20238;-59
2024/03/09 05:08:47;;;;;;;24.77;16.97;;;1.70;99.90;;;-141.84;91.42;64387.81;5028199;28;20230;-57
2024/03/09 05:11:15;;;;;;;26.87;17.27;;;1.70;99.90;;;-141.84;90.87;60968.94;5026213;28;20662;-59
2024/03/09 05:13:43;;;;;;;26.63;17.17;;;1.70;99.90;;;-141.84;89.46;53615.19;5022063;28;20695;-65
2024/03/09 05:16:12;;;;;;;24.60;16.57;;;1.80;99.90;;;-141.84;90.59;59129.22;5028757;28;20202;-66
2024/03/09 05:18:40;;;;;;;30.37;18.17;;;1.80;99.90;;;-141.84;89.64;56502.53;5020210;28;20698;-65
2024/03/09 05:21:10;;;;;;;26.93;17.77;;;1.90;99.90;;;-141.84;90.44;58078.34;5019603;28;20229;-66
2024/03/09 05:23:39;;;;;;;28.73;17.23;;;1.80;99.90;;;-141.84;89.96;56765.13;5017711;28;20702;-65
2024/03/09 05:26:09;;;;;;;24.87;16.90;;;1.80;99.90;;;-141.84;89.80;54664.88;5020142;28;20309;-66
2024/03/09 05:28:37;;;;;;;25.13;16.33;;;1.80;99.90;;;-141.84;90.33;57290.34;5022290;28;20806;-65
2024/03/09 05:31:23;;;;;;;24.40;15.93;;;1.80;99.90;;;-141.84;91.37;62546.50;5029071;28;20241;-69
2024/03/09 05:33:51;;;;;;;25.93;16.97;;;1.70;99.90;;;-141.84;91.52;63335.53;5023127;28;20226;-66
2024/03/09 05:36:21;;;;;;;27.87;16.80;;;1.70;99.90;;;-141.84;91.51;64124.72;5032538;28;20850;-66
2024/03/09 05:38:50;;;;;;;26.60;17.47;;;1.70;99.90;;;-141.84;90.83;61231.81;5020614;28;20215;-66
2024/03/09 05:41:19;;;;;;;28.47;17.30;;;1.70;99.90;;;-141.84;89.79;56765.13;5020335;28;20231;-65
2024/03/09 05:43:48;;;;;;;27.87;17.60;;;1.70;99.90;;;-141.84;89.77;55189.84;5030749;28;20197;-67
2024/03/09 05:46:17;;;;;;;26.87;17.10;;;1.80;99.90;;;-141.84;90.71;59391.97;5020998;28;20205;-66
2024/03/09 05:48:46;;;;;;;28.67;17.87;;;1.70;99.90;;;-141.84;88.70;52565.75;5027310;28;20250;-66
2024/03/09 05:51:15;;;;;;;26.77;17.70;;;1.80;99.90;;;-141.84;87.45;40255.84;5017739;28;20257;-66
2024/03/09 05:53:45;;;;;;;27.20;17.47;;;1.90;99.90;;;-141.84;89.30;51254.38;5027387;28;20321;-65
2024/03/09 05:56:13;;;;;;;26.47;17.17;;;1.80;99.90;;;-141.84;89.47;54664.88;5032528;28;20226;-65
2024/03/09 05:58:42;;;;;;;24.97;17.57;;;1.90;99.90;;;-141.84;87.65;45227.56;4993465;28;20202;-65
2024/03/09 06:01:12;;;;;;;26.97;18.10;;;2.00;99.90;;;-141.84;87.26;39994.34;5027592;28;20436;-65
2024/03/09 06:03:42;;;;;;;29.67;18.03;;;2.00;99.90;;;-141.84;86.64;37635.53;5025366;28;20222;-67
2024/03/09 06:06:12;;;;;;;28.60;17.60;;;2.10;99.90;;;-141.84;85.88;32971.13;5046169;28;20588;-66
2024/03/09 06:08:40;;;;;;;27.37;17.17;;;2.20;99.90;;;-141.84;84.93;27300.09;5039104;28;20288;-67
2024/03/09 06:11:11;;;;;;;24.87;17.13;;;2.20;99.90;;;-141.84;83.80;22666.28;5025734;28;20267;-67
2024/03/09 06:13:39;;;;;;;26.47;17.17;;;2.40;99.90;;;-141.84;83.02;21444.13;5025933;28;20241;-66
2024/03/09 06:16:09;;;;;;;25.50;17.17;;;2.40;99.90;;;-141.84;82.53;20730.53;5027906;28;20293;-67
2024/03/09 06:18:37;;;;;;;22.63;16.13;;;2.50;99.90;;;-141.84;81.41;19433.81;5028310;28;20368;-59
2024/03/09 06:21:07;;;;;;;25.87;16.97;;;2.60;99.90;;;-141.84;80.22;18836.41;5026044;28;20791;-59
2024/03/09 06:23:37;;;;;;;22.30;16.07;;;2.70;99.90;;;-141.84;79.84;18688.06;5024378;28;20940;-58
2024/03/09 06:26:05;;;;;;;23.57;16.00;;;2.70;99.90;;;-141.84;78.52;18395.50;5025541;28;20241;-60
2024/03/09 06:28:38;;;;;;;26.00;15.93;;;2.80;99.90;;;-141.84;77.30;18255.34;5031293;28;20206;-60
2024/03/09 06:31:08;;;;;;;23.77;15.87;;;2.80;99.90;;;-141.84;78.27;18350.81;5048059;28;20309;-66
2024/03/09 06:33:37;;;;;;;22.97;16.07;;;2.80;99.90;;;-141.84;77.64;18356.91;5029559;28;20745;-66
2024/03/09 06:36:08;;;;;;;23.93;16.00;;;2.90;99.90;;;-141.84;75.91;18232.97;5025485;28;20256;-68
2024/03/09 06:38:37;;;;;;;24.33;16.83;;;3.10;99.90;;;-141.84;75.46;18220.78;5023847;28;20276;-60
2024/03/09 06:41:05;;;;;;;22.53;15.80;;;3.20;99.90;;;-141.84;75.61;18220.78;5025500;28;20236;-66
2024/03/09 06:43:35;;;;;;;25.23;15.67;;;3.30;99.90;;;-141.84;74.15;18206.56;5020214;28;20268;-65
2024/03/09 06:46:08;;;;;;;23.13;16.23;;;3.20;99.90;;;-141.84;74.40;18172.03;5044645;28;20219;-59
2024/03/09 06:48:40;;;;;;;23.13;15.70;;;3.30;99.90;;;-141.84;75.00;18235.00;5051519;28;20221;-61
2024/03/09 06:51:08;;;;;;;24.20;16.23;;;3.40;99.90;;;-141.84;74.69;18204.53;5045201;28;20223;-58
2024/03/09 06:53:37;;;;;;;22.77;16.10;;;3.50;99.90;;;-141.84;74.38;18220.78;5048639;28;20237;-60
2024/03/09 06:56:07;;;;;;;24.83;16.00;;;3.50;99.90;;;-141.84;73.41;18194.38;5047817;28;20554;-59
2024/03/09 06:58:37;;;;;;;24.20;15.73;;;3.50;99.90;;;-141.84;73.22;18210.63;5051427;28;20205;-59
2024/03/09 07:01:05;;;;;;;23.37;15.70;;;3.60;99.90;;;-141.84;72.88;18172.03;5042308;28;20210;-60
2024/03/09 07:03:35;;;;;;;23.63;15.40;;;3.60;99.90;;;-141.84;73.38;18204.53;5043542;28;20231;-66
2024/03/09 07:06:03;;;;;;;22.50;15.67;;;3.60;99.90;;;-141.84;73.44;18241.13;5049375;28;20262;-66
2024/03/09 07:08:31;;;;;;;23.43;15.57;;;3.60;99.90;;;-141.84;73.31;18210.63;5041719;28;20234;-66
2024/03/09 07:11:00;;;;;;;24.63;16.77;;;3.70;99.90;;;-141.84;72.29;18200.47;5045800;28;20260;-65
2024/03/09 07:13:31;;;;;;;25.57;17.73;;;3.80;99.90;;;-141.84;71.25;18210.63;5048342;28;20210;-67
2024/03/09 07:16:01;;;;;;;27.30;16.93;;;3.70;99.90;;;-141.84;71.25;18220.78;5051122;28;20232;-66
2024/03/09 07:18:33;;;;;;;24.87;17.30;;;3.70;99.90;;;-141.84;71.15;18232.97;5045985;28;20236;-67
2024/03/09 07:21:05;;;;;;;26.10;17.13;;;3.80;99.90;;;-141.84;71.49;18228.91;5050731;28;20256;-66
2024/03/09 07:23:34;;;;;;;25.50;16.37;;;3.80;99.90;;;-141.84;70.85;18235.00;5051877;28;20717;-58
2024/03/09 07:26:03;;;;;;;29.13;17.47;;;3.80;99.90;;;-141.84;70.74;18239.09;5046603;28;20231;-61
2024/03/09 07:28:31;;;;;;;25.53;17.43;;;3.90;99.90;;;-141.84;69.81;18230.94;5042870;28;20280;-59
2024/03/09 07:31:01;;;;;;;24.87;16.90;;;4.00;99.90;;;-141.84;69.59;18263.47;5051088;28;20704;-61
2024/03/09 07:33:32;;;;;;;25.27;17.23;;;4.10;99.90;;;-141.84;69.52;18241.13;5046243;28;20293;-59
2024/03/09 07:36:00;;;;;;;25.30;16.80;;;4.00;99.90;;;-141.84;70.32;18235.00;5046970;28;20228;-58
2024/03/09 07:38:29;;;;;;;26.17;17.47;;;4.00;99.90;;;-141.84;70.83;18275.66;5049253;28;20345;-66
2024/03/09 07:41:00;;;;;;;28.23;17.73;;;3.90;99.90;;;-141.84;70.78;18306.13;5046777;28;20328;-66
2024/03/09 07:43:31;;;;;;;26.40;18.03;;;4.00;99.90;;;-141.84;71.40;18241.13;5032360;28;20201;-67
2024/03/09 07:46:05;;;;;;;25.93;17.37;;;3.90;99.90;;;-141.84;71.53;18257.38;5044082;28;20305;-68
2024/03/09 07:48:34;;;;;;;28.23;17.67;;;4.00;99.90;;;-141.84;71.72;18259.41;5032789;28;20225;-68
2024/03/09 07:51:02;;;;;;;24.33;17.50;;;3.90;99.90;;;-141.84;72.06;18285.81;5040688;28;20258;-67
2024/03/09 07:53:32;;;;;;;24.03;16.50;;;4.00;99.90;;;-141.84;71.37;18255.34;5046566;28;20256;-67
2024/03/09 07:56:01;;;;;;;24.90;17.70;;;4.10;99.90;;;-141.84;71.15;18257.38;5044110;28;20241;-67
2024/03/09 07:58:29;;;;;;;24.07;16.83;;;4.20;99.90;;;-141.84;70.90;18226.88;5048876;28;20212;-66
2024/03/09 08:01:05;;;;;;;24.43;16.67;;;4.30;99.90;;;-141.84;71.68;18285.81;5040062;28;20234;-66
2024/03/09 08:03:36;;;;;;;25.90;17.27;;;4.30;99.90;;;-141.84;70.50;18257.38;5051791;28;20247;-67
2024/03/09 08:06:07;;;;;;;24.50;16.87;;;4.50;99.90;;;-141.84;69.35;18275.66;5051244;28;20279;-67
2024/03/09 08:08:39;;;;;;;23.73;16.33;;;4.70;99.90;;;-141.84;69.72;18263.47;5048643;28;20232;-67
2024/03/09 08:11:09;;;;;;;22.47;15.73;;;4.80;99.90;;;-141.84;67.99;18257.38;5042005;28;20244;-66
2024/03/09 08:13:40;;;;;;;23.60;16.17;;;5.00;99.90;;;-141.84;67.48;18283.78;5016941;28;20210;-65
2024/03/09 08:16:19;;;;;;;22.27;14.93;;;5.10;99.90;;;-141.84;67.35;18295.97;5021146;28;20222;-66
2024/03/09 08:18:48;;;;;;;21.17;15.80;;;5.30;99.90;;;-141.84;66.58;18289.88;5029379;28;20221;-66
2024/03/09 08:21:19;;;;;;;21.13;15.40;;;5.40;99.90;;;-141.84;65.62;18318.31;5026894;28;20273;-67
2024/03/09 08:23:52;;;;;;;21.37;15.07;;;5.50;99.90;;;-141.84;65.35;18322.38;5023230;28;20218;-66
2024/03/09 08:26:20;;;;;;;20.47;14.83;;;5.60;99.90;;;-141.84;65.25;18336.59;5025871;28;20295;-67
2024/03/09 08:28:49;;;;;;;22.93;15.77;;;5.70;99.90;;;-141.84;64.48;18326.44;5031953;28;20209;-67
2024/03/09 08:31:17;;;;;;;20.13;14.00;;;5.90;99.90;;;-141.84;63.88;18330.50;5025305;28;20206;-66
2024/03/09 08:33:45;;;;;;;20.70;14.83;;;6.00;99.90;;;-141.84;63.76;18340.66;5028835;28;20226;-58
2024/03/09 08:36:20;;;;;;;23.00;15.77;;;6.10;99.90;;;-141.84;63.71;18334.56;5020359;28;20261;-59
2024/03/09 08:38:52;;;;;;;22.30;15.07;;;6.20;99.90;;;-141.84;63.87;18338.63;5028831;28;20229;-59
2024/03/09 08:41:27;;;;;;;21.37;15.07;;;6.30;99.90;;;-141.84;62.56;18401.59;5021663;28;20241;-58
2024/03/09 08:43:55;;;;;;;19.93;14.20;;;6.40;99.90;;;-141.84;62.09;18381.28;5025505;28;20197;-58
2024/03/09 08:46:24;;;;;;;20.20;14.23;;;6.50;99.90;;;-141.84;62.38;18395.50;5025897;28;20617;-59
2024/03/09 08:48:53;;;;;;;18.87;13.70;;;6.60;99.90;;;-141.84;63.13;18397.53;5019601;28;20280;-59
2024/03/09 08:51:22;;;;;;;19.83;13.67;;;6.60;99.90;;;-141.84;62.07;18395.50;5023252;28;20234;-59
2024/03/09 08:53:50;;;;;;;19.50;15.10;;;6.70;99.90;;;-141.84;60.82;18456.47;5026708;28;20230;-59
2024/03/09 08:56:19;;;;;;;20.97;14.93;;;6.90;99.90;;;-141.84;61.74;18403.63;5020194;28;20325;-59
2024/03/09 08:58:47;;;;;;;20.23;14.07;;;6.90;99.90;;;-141.84;61.04;18444.28;5031205;28;20681;-59
2024/03/09 09:01:15;;;;;;;20.27;14.53;;;7.00;99.90;;;-141.84;60.69;18438.19;5027177;28;20598;-62
2024/03/09 09:03:44;;;;;;;19.90;15.43;;;7.00;99.90;;;-141.84;60.49;18436.16;5026157;28;20237;-60
2024/03/09 09:06:12;;;;;;;19.83;14.00;;;7.10;99.90;;;-141.84;60.70;18411.75;5020397;28;20289;-60
2024/03/09 09:08:44;;;;;;;21.07;14.73;;;7.20;99.90;;;-141.84;60.21;18464.59;5026701;28;20226;-61
2024/03/09 09:11:16;;;;;;;17.77;13.97;;;7.30;99.90;;;-141.84;60.35;18428.03;5021635;28;20577;-61
2024/03/09 09:13:45;;;;;;;20.17;14.80;;;7.40;99.90;;;-141.84;59.46;18460.53;5022256;28;20289;-58
2024/03/09 09:16:18;;;;;;;21.50;15.00;;;7.50;99.90;;;-141.84;59.62;18470.69;5026066;28;20206;-59
2024/03/09 09:18:47;;;;;;;21.03;15.10;;;7.60;99.90;;;-141.84;59.33;18458.50;5020086;28;20233;-59
2024/03/09 09:21:15;;;;;;;20.33;14.20;;;7.70;99.90;;;-141.84;57.63;18460.53;5018668;28;20380;-59
2024/03/09 09:23:45;;;;;;;20.77;14.83;;;7.90;99.90;;;-141.84;57.46;18521.47;5022881;28;20238;-59
2024/03/09 09:26:14;;;;;;;18.07;13.90;;;7.90;99.90;;;-141.84;57.93;18505.22;5019204;28;20229;-62
2024/03/09 09:28:42;;;;;;;18.90;13.90;;;7.90;99.90;;;-141.84;57.33;18482.88;5030998;28;20213;-59
2024/03/09 09:31:11;;;;;;;20.23;14.40;;;8.00;99.90;;;-141.84;57.08;18511.31;5019620;28;20209;-56
2024/03/09 09:33:39;;;;;;;22.90;15.87;;;8.20;99.90;;;-141.84;57.46;18486.94;5022261;28;20221;-59
2024/03/09 09:36:12;;;;;;;18.20;14.00;;;8.20;99.90;;;-141.84;57.35;18519.44;5018491;28;20321;-59
2024/03/09 09:38:40;;;;;;;19.80;15.10;;;8.30;99.90;;;-141.84;56.81;18523.50;5021785;28;20281;-60
2024/03/09 09:41:14;;;;;;;17.83;14.57;;;8.40;99.90;;;-141.84;56.40;18549.91;5020602;28;20783;-58
2024/03/09 09:43:43;;;;;;;19.37;14.70;;;8.50;99.90;;;-141.84;55.41;18566.16;5025221;28;21470;-59
2024/03/09 09:46:12;;;;;;;20.00;14.30;;;8.50;99.90;;;-141.84;55.51;18545.84;5028188;28;20198;-58
2024/03/09 09:48:41;;;;;;;19.07;14.37;;;8.70;99.90;;;-141.84;55.39;18564.13;5026560;28;20309;-59
2024/03/09 09:51:16;;;;;;;17.57;13.53;;;8.70;99.90;;;-141.84;55.64;18547.88;5023194;28;20705;-60
2024/03/09 09:53:49;;;;;;;19.60;14.43;;;8.70;99.90;;;-141.84;54.86;18551.94;5019355;28;20312;-59
2024/03/09 09:56:22;;;;;;;20.83;14.30;;;8.80;99.90;;;-141.84;55.07;18590.56;5016110;28;20312;-58
2024/03/09 09:58:51;;;;;;;18.63;15.23;;;8.80;99.90;;;-141.84;55.04;18570.22;5024930;28;20625;-59
2024/03/09 10:01:20;;;;;;;18.50;13.97;;;8.90;99.90;;;-141.84;54.46;18616.97;5023518;28;20207;-60
2024/03/09 10:03:49;;;;;;;18.17;14.50;;;9.20;99.90;;;-141.84;53.09;18592.59;5021405;28;20233;-58
2024/03/09 10:06:22;;;;;;;16.90;13.60;;;9.40;99.90;;;-141.84;51.42;18655.56;5027924;28;20252;-58
2024/03/09 10:08:52;;;;;;;15.97;13.00;;;;;;;-141.84;51.80;18655.56;5020591;28;20222;-58
2024/03/09 10:11:22;;;;;;;17.00;13.60;;;9.60;99.90;;;-141.84;50.71;18698.22;5023020;28;20223;-58